sensor_id;sensor_type;location;lat;lon;timestamp;pressure;altitude;pressure_sealevel;temperature;humidity
78123;BME280;67376;44.802;10.332;2024-02-21T00:01:22;101996.47;;;20.48;46.77
78123;BME280;67376;44.802;10.332;2024-02-21T00:03:47;102006.28;;;20.49;46.80
78123;BME280;67376;44.802;10.332;2024-02-21T00:06:13;102013.56;;;20.48;47.32
78123;BME280;67376;44.802;10.332;2024-02-21T00:08:38;101999.19;;;20.48;47.36
78123;BME280;67376;44.802;10.332;2024-02-21T00:11:04;102002.94;;;20.47;47.15
78123;BME280;67376;44.802;10.332;2024-02-21T00:13:29;102005.44;;;20.48;46.96
78123;BME280;67376;44.802;10.332;2024-02-21T00:15:55;102003.75;;;20.47;47.20
78123;BME280;67376;44.802;10.332;2024-02-21T00:18:20;102005.66;;;20.47;47.29
78123;BME280;67376;44.802;10.332;2024-02-21T00:20:46;102000.44;;;20.45;47.32
78123;BME280;67376;44.802;10.332;2024-02-21T00:23:11;101998.53;;;20.46;47.14
78123;BME280;67376;44.802;10.332;2024-02-21T00:25:37;102004.19;;;20.44;47.76
78123;BME280;67376;44.802;10.332;2024-02-21T00:28:02;102010.66;;;20.43;47.49
78123;BME280;67376;44.802;10.332;2024-02-21T00:30:28;102007.72;;;20.44;46.88
78123;BME280;67376;44.802;10.332;2024-02-21T00:32:53;102009.59;;;20.44;47.12
78123;BME280;67376;44.802;10.332;2024-02-21T00:35:19;101999.78;;;20.43;47.12
78123;BME280;67376;44.802;10.332;2024-02-21T00:37:44;102005.22;;;20.43;47.48
78123;BME280;67376;44.802;10.332;2024-02-21T00:40:10;101998.75;;;20.44;47.42
78123;BME280;67376;44.802;10.332;2024-02-21T00:42:36;101999.78;;;20.43;47.47
78123;BME280;67376;44.802;10.332;2024-02-21T00:45:01;101999.78;;;20.43;47.51
78123;BME280;67376;44.802;10.332;2024-02-21T00:47:27;102002.50;;;20.43;47.28
78123;BME280;67376;44.802;10.332;2024-02-21T00:49:52;102002.50;;;20.43;47.28
78123;BME280;67376;44.802;10.332;2024-02-21T00:52:17;102001.66;;;20.42;47.30
78123;BME280;67376;44.802;10.332;2024-02-21T00:54:43;102004.38;;;20.42;47.35
78123;BME280;67376;44.802;10.332;2024-02-21T00:57:08;102002.91;;;20.40;47.40
78123;BME280;67376;44.802;10.332;2024-02-21T00:59:34;102008.13;;;20.41;47.66
78123;BME280;67376;44.802;10.332;2024-02-21T01:01:59;102007.28;;;20.41;47.52
78123;BME280;67376;44.802;10.332;2024-02-21T01:04:24;102009.19;;;20.40;47.53
78123;BME280;67376;44.802;10.332;2024-02-21T01:06:50;102002.06;;;20.39;47.43
78123;BME280;67376;44.802;10.332;2024-02-21T01:09:15;102007.50;;;20.39;47.57
78123;BME280;67376;44.802;10.332;2024-02-21T01:11:41;102003.97;;;20.39;47.38
78123;BME280;67376;44.802;10.332;2024-02-21T01:14:06;102007.50;;;20.39;47.16
78123;BME280;67376;44.802;10.332;2024-02-21T01:16:31;102007.50;;;20.39;47.63
78123;BME280;67376;44.802;10.332;2024-02-21T01:18:57;102016.47;;;20.40;47.06
78123;BME280;67376;44.802;10.332;2024-02-21T01:21:22;102014.81;;;20.39;47.48
78123;BME280;67376;44.802;10.332;2024-02-21T01:23:48;102012.09;;;20.39;47.06
78123;BME280;67376;44.802;10.332;2024-02-21T01:26:13;102011.25;;;20.38;47.59
78123;BME280;67376;44.802;10.332;2024-02-21T01:28:41;102012.09;;;20.39;47.96
78123;BME280;67376;44.802;10.332;2024-02-21T01:31:07;102011.25;;;20.38;47.54
78123;BME280;67376;44.802;10.332;2024-02-21T01:33:33;102006.84;;;20.37;47.79
78123;BME280;67376;44.802;10.332;2024-02-21T01:36:03;102013.31;;;20.36;47.06
78123;BME280;67376;44.802;10.332;2024-02-21T01:38:29;102007.88;;;20.36;47.37
78123;BME280;67376;44.802;10.332;2024-02-21T01:40:55;101998.91;;;20.36;47.08
78123;BME280;67376;44.802;10.332;2024-02-21T01:43:20;101996.19;;;20.36;47.44
78123;BME280;67376;44.802;10.332;2024-02-21T01:45:49;101986.38;;;20.35;47.44
78123;BME280;67376;44.802;10.332;2024-02-21T01:48:15;101988.06;;;20.36;47.57
78123;BME280;67376;44.802;10.332;2024-02-21T01:50:41;101989.09;;;20.35;47.25
78123;BME280;67376;44.802;10.332;2024-02-21T01:53:07;101993.69;;;20.34;47.28
78123;BME280;67376;44.802;10.332;2024-02-21T01:55:33;102001.00;;;20.34;47.75
78123;BME280;67376;44.802;10.332;2024-02-21T01:57:59;102001.00;;;20.34;46.95
78123;BME280;67376;44.802;10.332;2024-02-21T02:00:24;101996.41;;;20.34;47.50
78123;BME280;67376;44.802;10.332;2024-02-21T02:02:50;101996.59;;;20.33;47.62
78123;BME280;67376;44.802;10.332;2024-02-21T02:05:16;101986.59;;;20.33;47.46
78123;BME280;67376;44.802;10.332;2024-02-21T02:07:42;101990.34;;;20.32;47.72
78123;BME280;67376;44.802;10.332;2024-02-21T02:10:08;101996.59;;;20.33;47.24
78123;BME280;67376;44.802;10.332;2024-02-21T02:12:35;101999.31;;;20.33;47.84
78123;BME280;67376;44.802;10.332;2024-02-21T02:15:02;101989.50;;;20.32;47.33
78123;BME280;67376;44.802;10.332;2024-02-21T02:17:31;101987.84;;;20.31;47.66
78123;BME280;67376;44.802;10.332;2024-02-21T02:19:57;101978.66;;;20.32;47.61
78123;BME280;67376;44.802;10.332;2024-02-21T02:22:23;101982.41;;;20.31;47.56
78123;BME280;67376;44.802;10.332;2024-02-21T02:24:50;101978.03;;;20.30;46.96
78123;BME280;67376;44.802;10.332;2024-02-21T02:27:16;101978.03;;;20.30;47.76
78123;BME280;67376;44.802;10.332;2024-02-21T02:29:41;101969.88;;;20.30;47.39
78123;BME280;67376;44.802;10.332;2024-02-21T02:32:07;101969.88;;;20.30;46.94
78123;BME280;67376;44.802;10.332;2024-02-21T02:34:32;101969.88;;;20.30;47.21
78123;BME280;67376;44.802;10.332;2024-02-21T02:36:57;101959.03;;;20.30;46.98
78123;BME280;67376;44.802;10.332;2024-02-21T02:39:23;101958.41;;;20.28;47.57
78123;BME280;67376;44.802;10.332;2024-02-21T02:41:48;101963.00;;;20.27;46.69
78123;BME280;67376;44.802;10.332;2024-02-21T02:44:13;101969.25;;;20.28;47.25
78123;BME280;67376;44.802;10.332;2024-02-21T02:46:42;101969.47;;;20.26;47.42
78123;BME280;67376;44.802;10.332;2024-02-21T02:49:07;101962.38;;;20.25;47.49
78123;BME280;67376;44.802;10.332;2024-02-21T02:51:32;101970.50;;;20.25;47.19
78123;BME280;67376;44.802;10.332;2024-02-21T02:53:58;101963.22;;;20.26;46.84
78123;BME280;67376;44.802;10.332;2024-02-21T02:56:23;101964.25;;;20.25;47.36
78123;BME280;67376;44.802;10.332;2024-02-21T02:58:48;101970.50;;;20.25;47.18
78123;BME280;67376;44.802;10.332;2024-02-21T03:01:14;101965.28;;;20.24;46.80
78123;BME280;67376;44.802;10.332;2024-02-21T03:03:40;101959.84;;;20.24;46.96
78123;BME280;67376;44.802;10.332;2024-02-21T03:06:05;101959.03;;;20.23;46.90
78123;BME280;67376;44.802;10.332;2024-02-21T03:08:31;101961.75;;;20.23;47.23
78123;BME280;67376;44.802;10.332;2024-02-21T03:10:57;101954.03;;;20.20;47.40
78123;BME280;67376;44.802;10.332;2024-02-21T03:13:23;101958.44;;;20.21;47.14
78123;BME280;67376;44.802;10.332;2024-02-21T03:15:48;101959.25;;;20.22;47.33
78123;BME280;67376;44.802;10.332;2024-02-21T03:18:13;101959.25;;;20.22;47.42
78123;BME280;67376;44.802;10.332;2024-02-21T03:20:39;101961.97;;;20.22;47.61
78123;BME280;67376;44.802;10.332;2024-02-21T03:23:04;101961.97;;;20.22;47.16
78123;BME280;67376;44.802;10.332;2024-02-21T03:25:30;101961.13;;;20.21;47.57
78123;BME280;67376;44.802;10.332;2024-02-21T03:27:55;101971.97;;;20.21;46.80
78123;BME280;67376;44.802;10.332;2024-02-21T03:30:20;101974.69;;;20.21;47.19
78123;BME280;67376;44.802;10.332;2024-02-21T03:32:46;101977.41;;;20.21;47.23
78123;BME280;67376;44.802;10.332;2024-02-21T03:35:11;101970.31;;;20.20;47.07
78123;BME280;67376;44.802;10.332;2024-02-21T03:37:36;101968.63;;;20.19;47.19
78123;BME280;67376;44.802;10.332;2024-02-21T03:40:02;101979.50;;;20.19;46.98
78123;BME280;67376;44.802;10.332;2024-02-21T03:42:27;101978.66;;;20.19;46.93
78123;BME280;67376;44.802;10.332;2024-02-21T03:44:55;101985.94;;;20.18;47.16
78123;BME280;67376;44.802;10.332;2024-02-21T03:47:20;101988.66;;;20.18;47.52
78123;BME280;67376;44.802;10.332;2024-02-21T03:49:46;101983.25;;;20.18;47.32
78123;BME280;67376;44.802;10.332;2024-02-21T03:52:11;101990.53;;;20.18;47.27
78123;BME280;67376;44.802;10.332;2024-02-21T03:54:36;101990.53;;;20.18;47.45
78123;BME280;67376;44.802;10.332;2024-02-21T03:57:02;101989.69;;;20.17;46.79
78123;BME280;67376;44.802;10.332;2024-02-21T03:59:28;101978.03;;;20.17;47.63
78123;BME280;67376;44.802;10.332;2024-02-21T04:01:53;101983.44;;;20.17;47.41
78123;BME280;67376;44.802;10.332;2024-02-21T04:04:19;101982.59;;;20.16;47.58
78123;BME280;67376;44.802;10.332;2024-02-21T04:06:49;101987.19;;;20.16;47.20
78123;BME280;67376;44.802;10.332;2024-02-21T04:09:14;101988.03;;;20.16;47.70
78123;BME280;67376;44.802;10.332;2024-02-21T04:11:40;101987.19;;;20.16;46.86
78123;BME280;67376;44.802;10.332;2024-02-21T04:14:05;101975.50;;;20.15;47.60
78123;BME280;67376;44.802;10.332;2024-02-21T04:16:31;101988.03;;;20.16;46.91
78123;BME280;67376;44.802;10.332;2024-02-21T04:18:56;101979.06;;;20.16;47.63
78123;BME280;67376;44.802;10.332;2024-02-21T04:21:21;101980.94;;;20.15;47.46
78123;BME280;67376;44.802;10.332;2024-02-21T04:23:47;101981.97;;;20.14;46.88
78123;BME280;67376;44.802;10.332;2024-02-21T04:26:12;101980.31;;;20.13;47.02
78123;BME280;67376;44.802;10.332;2024-02-21T04:28:37;101977.38;;;20.15;47.19
78123;BME280;67376;44.802;10.332;2024-02-21T04:31:03;101979.25;;;20.14;47.24
78123;BME280;67376;44.802;10.332;2024-02-21T04:33:28;101983.84;;;20.14;47.03
78123;BME280;67376;44.802;10.332;2024-02-21T04:35:54;101980.31;;;20.13;47.42
78123;BME280;67376;44.802;10.332;2024-02-21T04:38:20;101976.75;;;20.13;47.62
78123;BME280;67376;44.802;10.332;2024-02-21T04:40:45;101981.34;;;20.12;47.37
78123;BME280;67376;44.802;10.332;2024-02-21T04:43:11;101985.94;;;20.11;46.81
78123;BME280;67376;44.802;10.332;2024-02-21T04:45:36;101994.91;;;20.12;47.68
78123;BME280;67376;44.802;10.332;2024-02-21T04:48:02;101999.47;;;20.11;47.02
78123;BME280;67376;44.802;10.332;2024-02-21T04:50:27;101992.38;;;20.10;47.68
78123;BME280;67376;44.802;10.332;2024-02-21T04:52:53;101990.50;;;20.11;47.54
78123;BME280;67376;44.802;10.332;2024-02-21T04:55:19;101997.81;;;20.10;47.03
78123;BME280;67376;44.802;10.332;2024-02-21T04:57:44;102002.41;;;20.10;47.05
78123;BME280;67376;44.802;10.332;2024-02-21T05:00:10;102012.41;;;20.09;47.07
78123;BME280;67376;44.802;10.332;2024-02-21T05:02:36;102019.50;;;20.10;47.05
78123;BME280;67376;44.802;10.332;2024-02-21T05:05:01;102008.66;;;20.10;46.54
78123;BME280;67376;44.802;10.332;2024-02-21T05:07:27;102008.66;;;20.10;46.64
78123;BME280;67376;44.802;10.332;2024-02-21T05:09:53;102003.22;;;20.10;46.79
78123;BME280;67376;44.802;10.332;2024-02-21T05:12:18;101996.97;;;20.10;46.99
78123;BME280;67376;44.802;10.332;2024-02-21T05:14:43;102003.44;;;20.09;47.32
78123;BME280;67376;44.802;10.332;2024-02-21T05:17:09;102002.59;;;20.08;47.07
78123;BME280;67376;44.802;10.332;2024-02-21T05:19:34;101999.88;;;20.08;47.20
78123;BME280;67376;44.802;10.332;2024-02-21T05:21:59;101996.34;;;20.08;46.81
78123;BME280;67376;44.802;10.332;2024-02-21T05:24:25;102002.59;;;20.08;47.34
78123;BME280;67376;44.802;10.332;2024-02-21T05:26:51;102002.59;;;20.08;47.29
78123;BME280;67376;44.802;10.332;2024-02-21T05:29:16;101999.06;;;20.08;47.38
78123;BME280;67376;44.802;10.332;2024-02-21T05:34:17;102005.31;;;20.08;47.23
78123;BME280;67376;44.802;10.332;2024-02-21T05:36:42;101995.72;;;20.06;46.67
78123;BME280;67376;44.802;10.332;2024-02-21T05:39:08;102006.34;;;20.07;47.46
78123;BME280;67376;44.802;10.332;2024-02-21T05:41:33;102000.09;;;20.07;46.87
78123;BME280;67376;44.802;10.332;2024-02-21T05:43:58;101997.38;;;20.07;47.20
78123;BME280;67376;44.802;10.332;2024-02-21T05:46:24;102001.97;;;20.06;47.31
78123;BME280;67376;44.802;10.332;2024-02-21T05:48:49;102000.28;;;20.05;47.10
78123;BME280;67376;44.802;10.332;2024-02-21T05:51:15;101997.38;;;20.07;47.35
78123;BME280;67376;44.802;10.332;2024-02-21T05:53:40;102004.69;;;20.06;47.04
78123;BME280;67376;44.802;10.332;2024-02-21T05:56:13;101998.41;;;20.06;47.81
78123;BME280;67376;44.802;10.332;2024-02-21T05:58:39;101999.25;;;20.06;47.17
78123;BME280;67376;44.802;10.332;2024-02-21T06:01:04;101994.66;;;20.07;47.71
78123;BME280;67376;44.802;10.332;2024-02-21T06:03:32;101993.84;;;20.06;47.33
78123;BME280;67376;44.802;10.332;2024-02-21T06:05:58;102004.47;;;20.08;47.73
78123;BME280;67376;44.802;10.332;2024-02-21T06:08:23;101996.53;;;20.06;47.89
78123;BME280;67376;44.802;10.332;2024-02-21T06:10:49;101999.06;;;20.08;46.91
78123;BME280;67376;44.802;10.332;2024-02-21T06:13:17;102001.97;;;20.06;47.12
78123;BME280;67376;44.802;10.332;2024-02-21T06:15:42;102003.44;;;20.09;47.46
78123;BME280;67376;44.802;10.332;2024-02-21T06:18:08;102011.56;;;20.09;47.36
78123;BME280;67376;44.802;10.332;2024-02-21T06:20:33;102010.75;;;20.08;47.00
78123;BME280;67376;44.802;10.332;2024-02-21T06:23:01;102021.59;;;20.08;46.94
78123;BME280;67376;44.802;10.332;2024-02-21T06:25:26;102034.09;;;20.09;47.22
78123;BME280;67376;44.802;10.332;2024-02-21T06:27:52;102031.38;;;20.09;47.51
78123;BME280;67376;44.802;10.332;2024-02-21T06:30:17;102036.19;;;20.07;47.13
78123;BME280;67376;44.802;10.332;2024-02-21T06:32:42;102038.88;;;20.07;47.72
78123;BME280;67376;44.802;10.332;2024-02-21T06:35:08;102034.50;;;20.06;46.96
78123;BME280;67376;44.802;10.332;2024-02-21T06:37:33;102044.31;;;20.07;47.24
78123;BME280;67376;44.802;10.332;2024-02-21T06:39:59;102032.63;;;20.07;47.40
78123;BME280;67376;44.802;10.332;2024-02-21T06:42:25;102040.34;;;20.10;47.42
78123;BME280;67376;44.802;10.332;2024-02-21T06:44:50;102038.69;;;20.09;46.81
78123;BME280;67376;44.802;10.332;2024-02-21T06:47:15;102040.34;;;20.10;46.71
78123;BME280;67376;44.802;10.332;2024-02-21T06:49:41;102047.41;;;20.04;46.64
78123;BME280;67376;44.802;10.332;2024-02-21T06:52:07;102049.09;;;20.05;46.35
78123;BME280;67376;44.802;10.332;2024-02-21T06:54:32;102040.69;;;19.94;40.51
78123;BME280;67376;44.802;10.332;2024-02-21T06:56:58;102043.25;;;19.67;37.98
78123;BME280;67376;44.802;10.332;2024-02-21T06:59:23;102047.00;;;19.38;36.57
78123;BME280;67376;44.802;10.332;2024-02-21T07:01:51;102044.28;;;19.10;37.33
78123;BME280;67376;44.802;10.332;2024-02-21T07:04:17;102050.69;;;19.03;38.83
78123;BME280;67376;44.802;10.332;2024-02-21T07:06:42;102060.06;;;19.07;41.72
78123;BME280;67376;44.802;10.332;2024-02-21T07:09:07;102063.09;;;19.19;44.15
78123;BME280;67376;44.802;10.332;2024-02-21T07:11:33;102059.03;;;19.29;44.98
78123;BME280;67376;44.802;10.332;2024-02-21T07:13:58;102061.84;;;19.42;45.22
78123;BME280;67376;44.802;10.332;2024-02-21T07:16:23;102057.97;;;19.52;45.32
78123;BME280;67376;44.802;10.332;2024-02-21T07:18:49;102063.25;;;19.60;45.36
78123;BME280;67376;44.802;10.332;2024-02-21T07:21:14;102058.06;;;19.71;44.55
78123;BME280;67376;44.802;10.332;2024-02-21T07:23:43;102053.50;;;19.72;41.97
78123;BME280;67376;44.802;10.332;2024-02-21T07:26:09;102057.44;;;19.63;38.28
78123;BME280;67376;44.802;10.332;2024-02-21T07:28:34;102050.09;;;19.57;41.39
78123;BME280;67376;44.802;10.332;2024-02-21T07:31:00;102059.31;;;19.62;42.63
78123;BME280;67376;44.802;10.332;2024-02-21T07:33:25;102058.66;;;19.67;43.00
78123;BME280;67376;44.802;10.332;2024-02-21T07:35:51;102062.91;;;19.76;43.74
78123;BME280;67376;44.802;10.332;2024-02-21T07:38:16;102065.66;;;19.83;43.72
78123;BME280;67376;44.802;10.332;2024-02-21T07:40:46;102072.16;;;19.88;43.66
78123;BME280;67376;44.802;10.332;2024-02-21T07:43:11;102064.06;;;19.95;43.05
78123;BME280;67376;44.802;10.332;2024-02-21T07:45:37;102070.53;;;20.00;43.56
78123;BME280;67376;44.802;10.332;2024-02-21T07:48:07;102070.78;;;20.05;43.34
78123;BME280;67376;44.802;10.332;2024-02-21T07:50:33;102069.34;;;20.09;43.92
78123;BME280;67376;44.802;10.332;2024-02-21T07:52:58;102078.75;;;20.14;43.42
78123;BME280;67376;44.802;10.332;2024-02-21T07:55:23;102083.97;;;20.15;43.71
78123;BME280;67376;44.802;10.332;2024-02-21T07:57:49;102080.84;;;20.18;43.52
78123;BME280;67376;44.802;10.332;2024-02-21T08:00:15;102077.75;;;20.21;43.83
78123;BME280;67376;44.802;10.332;2024-02-21T08:02:46;102083.78;;;20.23;43.44
78123;BME280;67376;44.802;10.332;2024-02-21T08:05:11;102075.44;;;20.25;43.68
78123;BME280;67376;44.802;10.332;2024-02-21T08:07:38;102081.28;;;20.28;44.12
78123;BME280;67376;44.802;10.332;2024-02-21T08:10:04;102078.19;;;20.31;44.21
78123;BME280;67376;44.802;10.332;2024-02-21T08:12:29;102077.78;;;20.34;43.70
78123;BME280;67376;44.802;10.332;2024-02-21T08:14:55;102091.13;;;20.36;44.11
78123;BME280;67376;44.802;10.332;2024-02-21T08:17:20;102088.03;;;20.39;43.71
78123;BME280;67376;44.802;10.332;2024-02-21T08:19:46;102094.31;;;20.39;44.08
78123;BME280;67376;44.802;10.332;2024-02-21T08:22:11;102098.50;;;20.42;44.06
78123;BME280;67376;44.802;10.332;2024-02-21T08:24:37;102097.44;;;20.43;43.82
78123;BME280;67376;44.802;10.332;2024-02-21T08:27:03;102102.69;;;20.44;44.86
78123;BME280;67376;44.802;10.332;2024-02-21T08:29:28;102104.97;;;20.48;44.59
78123;BME280;67376;44.802;10.332;2024-02-21T08:31:54;102097.69;;;20.48;44.64
78123;BME280;67376;44.802;10.332;2024-02-21T08:34:19;102095.81;;;20.49;44.73
78123;BME280;67376;44.802;10.332;2024-02-21T08:36:45;102101.22;;;20.49;44.55
78123;BME280;67376;44.802;10.332;2024-02-21T08:39:10;102095.81;;;20.49;44.37
78123;BME280;67376;44.802;10.332;2024-02-21T08:41:36;102086.81;;;20.48;43.99
78123;BME280;67376;44.802;10.332;2024-02-21T08:44:01;102098.53;;;20.49;44.16
78123;BME280;67376;44.802;10.332;2024-02-21T08:46:28;102084.75;;;20.50;44.24
78123;BME280;67376;44.802;10.332;2024-02-21T08:48:54;102081.19;;;20.50;44.56
78123;BME280;67376;44.802;10.332;2024-02-21T08:51:19;102083.91;;;20.50;44.47
78123;BME280;67376;44.802;10.332;2024-02-21T08:53:46;102087.47;;;20.50;44.62
78123;BME280;67376;44.802;10.332;2024-02-21T08:56:11;102091.84;;;20.51;44.56
78123;BME280;67376;44.802;10.332;2024-02-21T08:58:38;102086.41;;;20.51;44.48
78123;BME280;67376;44.802;10.332;2024-02-21T09:01:04;102089.78;;;20.53;44.74
78123;BME280;67376;44.802;10.332;2024-02-21T09:03:33;102078.91;;;20.53;44.61
78123;BME280;67376;44.802;10.332;2024-02-21T09:05:59;102084.97;;;20.55;44.64
78123;BME280;67376;44.802;10.332;2024-02-21T09:08:25;102082.25;;;20.55;44.33
78123;BME280;67376;44.802;10.332;2024-02-21T09:10:51;102077.66;;;20.56;44.38
78123;BME280;67376;44.802;10.332;2024-02-21T09:13:17;102080.19;;;20.57;44.68
78123;BME280;67376;44.802;10.332;2024-02-21T09:15:43;102074.97;;;20.56;44.86
78123;BME280;67376;44.802;10.332;2024-02-21T09:18:08;102081.22;;;20.56;44.74
78123;BME280;67376;44.802;10.332;2024-02-21T09:20:34;102073.91;;;20.57;45.18
78123;BME280;67376;44.802;10.332;2024-02-21T09:22:59;102074.97;;;20.56;45.11
78123;BME280;67376;44.802;10.332;2024-02-21T09:25:25;102078.50;;;20.56;45.13
78123;BME280;67376;44.802;10.332;2024-02-21T09:27:50;102074.75;;;20.57;45.15
78123;BME280;67376;44.802;10.332;2024-02-21T09:30:17;102062.22;;;20.56;44.85
78123;BME280;67376;44.802;10.332;2024-02-21T09:32:43;102055.97;;;20.56;44.87
78123;BME280;67376;44.802;10.332;2024-02-21T09:35:08;102063.06;;;20.57;44.93
78123;BME280;67376;44.802;10.332;2024-02-21T09:37:33;102055.97;;;20.56;44.89
78123;BME280;67376;44.802;10.332;2024-02-21T09:39:59;102055.97;;;20.56;44.91
78123;BME280;67376;44.802;10.332;2024-02-21T09:42:41;102049.69;;;20.55;44.92
78123;BME280;67376;44.802;10.332;2024-02-21T09:50:10;102050.75;;;20.54;45.04
78123;BME280;67376;44.802;10.332;2024-02-21T09:52:36;102049.06;;;20.53;45.60
78123;BME280;67376;44.802;10.332;2024-02-21T09:55:02;102046.34;;;20.53;45.28
78123;BME280;67376;44.802;10.332;2024-02-21T09:57:30;102042.59;;;20.54;45.64
78123;BME280;67376;44.802;10.332;2024-02-21T09:59:57;102050.53;;;20.56;45.79
78123;BME280;67376;44.802;10.332;2024-02-21T10:02:24;102051.38;;;20.56;45.60
78123;BME280;67376;44.802;10.332;2024-02-21T10:04:49;102046.78;;;20.57;45.85
78123;BME280;67376;44.802;10.332;2024-02-21T10:07:15;102044.69;;;20.59;45.35
78123;BME280;67376;44.802;10.332;2024-02-21T10:09:40;102044.69;;;20.59;45.10
78123;BME280;67376;44.802;10.332;2024-02-21T10:12:11;102045.13;;;20.62;45.38
78123;BME280;67376;44.802;10.332;2024-02-21T10:14:37;102039.69;;;20.62;45.27
78123;BME280;67376;44.802;10.332;2024-02-21T10:17:03;102037.63;;;20.64;45.10
78123;BME280;67376;44.802;10.332;2024-02-21T10:19:30;102030.09;;;20.66;45.17
78123;BME280;67376;44.802;10.332;2024-02-21T10:22:06;102036.38;;;20.67;45.26
78123;BME280;67376;44.802;10.332;2024-02-21T10:24:36;102035.31;;;20.68;45.37
78123;BME280;67376;44.802;10.332;2024-02-21T10:27:08;102032.41;;;20.69;45.13
78123;BME280;67376;44.802;10.332;2024-02-21T10:29:37;102042.22;;;20.70;45.49
78123;BME280;67376;44.802;10.332;2024-02-21T10:32:11;102041.38;;;20.70;44.92
78123;BME280;67376;44.802;10.332;2024-02-21T10:34:38;102045.78;;;20.71;44.96
78123;BME280;67376;44.802;10.332;2024-02-21T10:37:08;102043.91;;;20.71;45.20
78123;BME280;67376;44.802;10.332;2024-02-21T10:39:35;102054.53;;;20.73;45.91
78123;BME280;67376;44.802;10.332;2024-02-21T10:42:02;102056.44;;;20.72;45.62
78123;BME280;67376;44.802;10.332;2024-02-21T10:44:32;102049.94;;;20.73;45.68
78123;BME280;67376;44.802;10.332;2024-02-21T10:46:58;102052.66;;;20.73;45.37
78123;BME280;67376;44.802;10.332;2024-02-21T10:49:25;102050.16;;;20.72;45.21
78123;BME280;67376;44.802;10.332;2024-02-21T10:51:55;102044.72;;;20.72;45.57
78123;BME280;67376;44.802;10.332;2024-02-21T10:57:13;102042.63;;;20.67;44.77
78123;BME280;67376;44.802;10.332;2024-02-21T10:59:40;102034.69;;;20.66;45.51
78123;BME280;67376;44.802;10.332;2024-02-21T11:02:06;102027.81;;;20.63;45.20
78123;BME280;67376;44.802;10.332;2024-02-21T11:04:32;102024.25;;;20.63;45.05
78123;BME280;67376;44.802;10.332;2024-02-21T11:07:02;102020.06;;;20.60;45.31
78123;BME280;67376;44.802;10.332;2024-02-21T11:09:32;102011.94;;;20.60;44.97
78123;BME280;67376;44.802;10.332;2024-02-21T11:11:58;102011.09;;;20.60;44.98
78123;BME280;67376;44.802;10.332;2024-02-21T11:14:27;102007.56;;;20.59;44.68
78123;BME280;67376;44.802;10.332;2024-02-21T11:16:53;101993.97;;;20.59;45.15
78123;BME280;67376;44.802;10.332;2024-02-21T11:19:23;101987.72;;;20.59;44.65
78123;BME280;67376;44.802;10.332;2024-02-21T11:21:51;101991.28;;;20.59;45.01
78123;BME280;67376;44.802;10.332;2024-02-21T11:24:33;101987.72;;;20.59;44.95
78123;BME280;67376;44.802;10.332;2024-02-21T11:27:15;101981.47;;;20.58;44.55
78123;BME280;67376;44.802;10.332;2024-02-21T11:29:48;101972.47;;;20.58;44.65
78123;BME280;67376;44.802;10.332;2024-02-21T11:32:17;101967.88;;;20.58;45.02
78123;BME280;67376;44.802;10.332;2024-02-21T11:37:29;101951.59;;;20.58;44.87
78123;BME280;67376;44.802;10.332;2024-02-21T11:39:55;101953.50;;;20.58;45.28
78123;BME280;67376;44.802;10.332;2024-02-21T11:42:21;101941.59;;;20.59;45.25
78123;BME280;67376;44.802;10.332;2024-02-21T11:44:46;101941.59;;;20.59;44.87
78123;BME280;67376;44.802;10.332;2024-02-21T11:47:14;101940.75;;;20.58;45.03
78123;BME280;67376;44.802;10.332;2024-02-21T11:49:45;101935.34;;;20.58;44.95
78123;BME280;67376;44.802;10.332;2024-02-21T11:52:12;101928.03;;;20.59;45.64
78123;BME280;67376;44.802;10.332;2024-02-21T11:54:37;101921.75;;;20.58;45.29
78123;BME280;67376;44.802;10.332;2024-02-21T11:57:02;101923.63;;;20.58;45.21
78123;BME280;67376;44.802;10.332;2024-02-21T11:59:32;101913.84;;;20.57;45.04
78123;BME280;67376;44.802;10.332;2024-02-21T12:01:59;101918.22;;;20.58;45.16
78123;BME280;67376;44.802;10.332;2024-02-21T12:04:25;101909.25;;;20.57;45.53
78123;BME280;67376;44.802;10.332;2024-02-21T12:06:52;101905.69;;;20.57;45.62
78123;BME280;67376;44.802;10.332;2024-02-21T12:09:17;101911.94;;;20.57;44.80
78123;BME280;67376;44.802;10.332;2024-02-21T12:11:44;101907.34;;;20.58;45.11
78123;BME280;67376;44.802;10.332;2024-02-21T12:14:09;101900.25;;;20.57;45.42
78123;BME280;67376;44.802;10.332;2024-02-21T12:16:35;101893.16;;;20.56;45.31
78123;BME280;67376;44.802;10.332;2024-02-21T12:19:04;101891.50;;;20.55;45.09
78123;BME280;67376;44.802;10.332;2024-02-21T12:21:30;101883.34;;;20.55;44.80
78123;BME280;67376;44.802;10.332;2024-02-21T12:23:58;101884.19;;;20.55;44.42
78123;BME280;67376;44.802;10.332;2024-02-21T12:26:23;101888.16;;;20.53;44.61
78123;BME280;67376;44.802;10.332;2024-02-21T12:28:49;101874.19;;;20.49;44.36
78123;BME280;67376;44.802;10.332;2024-02-21T12:31:15;101879.59;;;20.49;44.73
78123;BME280;67376;44.802;10.332;2024-02-21T12:33:44;101872.50;;;20.48;45.11
78123;BME280;67376;44.802;10.332;2024-02-21T12:36:09;101867.28;;;20.47;45.01
78123;BME280;67376;44.802;10.332;2024-02-21T12:38:35;101872.94;;;20.45;43.80
78123;BME280;67376;44.802;10.332;2024-02-21T12:41:01;101866.88;;;20.43;43.21
78123;BME280;67376;44.802;10.332;2024-02-21T12:43:27;101870.41;;;20.43;43.07
78123;BME280;67376;44.802;10.332;2024-02-21T12:45:52;101863.31;;;20.42;42.86
78123;BME280;67376;44.802;10.332;2024-02-21T12:48:18;101860.41;;;20.44;42.87